Topi Weather



Topi's Current Weather

Temprature 23.94o few clouds

few clouds

Rain: 0 %

Min Temprature23.89o
Max Temprature24o
Humidity57
Wind Speed6.2 m/h
Sun Rise06:16:23
Sun Set17:32:56
Current Time: 18-Oct-2019 17:04:07
Lat/Lon: 34.07, 72.61




Topi's Geo Location



Topi's Weather Forecast

Time Overall Temp Min Temp Max Temp Humidity Wind Speed Rain
18-Oct-2019 (Fri)
20:00:00 few clouds 21.020 21.020 21.313 57 1.18 m/h 0 %
23:00:00 few clouds 20.150 20.150 20.369 61 1.26 m/h 0 %
19-Oct-2019 (Sat)
02:00:00 scattered clouds 19.290 19.290 19.438 61 2.18 m/h 0 %
05:00:00 broken clouds 18.850 18.850 18.928 47 2.86 m/h 0 %
08:00:00 overcast clouds 20.692 20.692 20.692 43 1.38 m/h 0 %
11:00:00 overcast clouds 25.180 25.180 25.180 35 2 m/h 0 %
14:00:00 overcast clouds 27.703 27.703 27.703 27 2.46 m/h 0 %
17:00:00 broken clouds 25.364 25.364 25.364 36 0.79 m/h 0 %
20:00:00 clear sky 22.421 22.421 22.421 38 1.02 m/h 0 %
23:00:00 clear sky 20.544 20.544 20.544 44 2.08 m/h 0 %
20-Oct-2019 (Sun)
02:00:00 clear sky 19.267 19.267 19.267 45 1.73 m/h 0 %
05:00:00 clear sky 18.228 18.228 18.228 43 1.05 m/h 0 %
08:00:00 clear sky 20.314 20.314 20.314 41 0.63 m/h 0 %
11:00:00 clear sky 25.500 25.500 25.500 30 1.88 m/h 0 %
14:00:00 clear sky 28.753 28.753 28.753 24 2.26 m/h 0 %
17:00:00 broken clouds 25.541 25.541 25.541 33 1.11 m/h 0 %
20:00:00 overcast clouds 22.783 22.783 22.783 35 1.2 m/h 0 %
23:00:00 overcast clouds 20.809 20.809 20.809 41 2.05 m/h 0 %
21-Oct-2019 (Mon)
02:00:00 clear sky 19.596 19.596 19.596 42 1.82 m/h 0 %
05:00:00 clear sky 18.387 18.387 18.387 43 1.44 m/h 0 %
08:00:00 clear sky 20.692 20.692 20.692 40 1.07 m/h 0 %
11:00:00 clear sky 25.525 25.525 25.525 30 1.76 m/h 0 %
14:00:00 clear sky 28.958 28.958 28.958 23 1.48 m/h 0 %
17:00:00 clear sky 26.254 26.254 26.254 33 1.08 m/h 0 %
20:00:00 clear sky 22.993 22.993 22.993 36 1.78 m/h 0 %
23:00:00 clear sky 20.964 20.964 20.964 40 2.27 m/h 0 %
22-Oct-2019 (Tue)
02:00:00 clear sky 19.622 19.622 19.622 41 1.66 m/h 0 %
05:00:00 clear sky 18.366 18.366 18.366 42 0.98 m/h 0 %
08:00:00 clear sky 20.601 20.601 20.601 38 0.45 m/h 0 %
11:00:00 clear sky 25.885 25.885 25.885 29 2 m/h 0 %
14:00:00 few clouds 29.019 29.019 29.019 24 1.89 m/h 0 %
17:00:00 scattered clouds 26.049 26.049 26.049 33 1.04 m/h 0 %
20:00:00 overcast clouds 23.550 23.550 23.550 34 2.2 m/h 0 %
23:00:00 overcast clouds 22.032 22.032 22.032 38 2.12 m/h 0 %
23-Oct-2019 (Wed)
02:00:00 overcast clouds 21.315 21.315 21.315 39 1.53 m/h 0 %
05:00:00 overcast clouds 20.768 20.768 20.768 39 1.02 m/h 0 %
08:00:00 overcast clouds 21.633 21.633 21.633 44 1.54 m/h 0 %
11:00:00 overcast clouds 26.054 26.054 26.054 35 3.08 m/h 0 %
14:00:00 broken clouds 28.761 28.761 28.761 27 2.54 m/h 0 %
17:00:00 scattered clouds 26.050 26.050 26.050 35 1.73 m/h 0 %

Famous Cities (61)